Time;durP1;ratioP1;P1;durP2;ratioP2;P2;SDS_P1;SDS_P2;PMS_P1;PMS_P2;Temp;Humidity;BMP_temperature;BMP_pressure;BME280_temperature;BME280_humidity;BME280_pressure;Samples;Min_cycle;Max_cycle;Signal;HPM_P1;HPM_P2
2021/06/07 00:00:47;;;;;;;4.72;1.80;;;;;;;12.16;73.08;101790.75;6033629;23;20007;-85
2021/06/07 00:03:13;;;;;;;9.00;2.75;;;;;;;12.13;73.18;101784.88;6035132;23;20340;-84
2021/06/07 00:05:39;;;;;;;4.93;1.65;;;;;;;12.05;73.15;101777.56;6011052;23;20014;-85
2021/06/07 00:08:05;;;;;;;5.35;2.10;;;;;;;12.14;73.40;101797.31;6011422;23;20471;-83
2021/06/07 00:10:31;;;;;;;5.70;2.55;;;;;;;12.09;72.86;101784.31;6035793;23;20884;-85
2021/06/07 00:12:57;;;;;;;6.65;2.85;;;;;;;11.97;73.42;101782.94;6009892;23;20007;-84
2021/06/07 00:15:24;;;;;;;6.95;3.08;;;;;;;11.97;73.30;101786.47;6035261;23;20009;-86
2021/06/07 00:17:49;;;;;;;8.18;3.10;;;;;;;11.93;73.68;101784.22;6010766;23;20025;-84
2021/06/07 00:20:26;;;;;;;7.07;2.92;;;;;;;11.75;74.56;101782.44;6038352;23;20003;-85
2021/06/07 00:22:52;;;;;;;7.88;2.97;;;;;;;11.59;74.92;101779.59;6013966;23;20017;-85
2021/06/07 00:25:17;;;;;;;7.22;2.85;;;;;;;11.55;74.51;101780.94;6012528;23;20427;-84
2021/06/07 00:27:42;;;;;;;6.70;3.15;;;;;;;11.59;74.76;101783.16;6010183;23;20013;-84
2021/06/07 00:30:08;;;;;;;7.57;2.33;;;;;;;11.68;74.58;101786.75;6011164;23;20081;-85
2021/06/07 00:32:34;;;;;;;9.50;2.35;;;;;;;11.68;73.89;101786.75;6011840;23;20007;-84
2021/06/07 00:34:59;;;;;;;7.15;2.70;;;;;;;11.79;73.51;101791.03;6013536;23;19995;-84
2021/06/07 00:37:25;;;;;;;6.88;2.70;;;;;;;11.69;73.23;101766.03;6014021;23;20013;-84
2021/06/07 00:39:50;;;;;;;4.65;2.05;;;;;;;11.66;73.72;101767.19;6012806;23;20547;-85
2021/06/07 00:42:16;;;;;;;7.00;2.60;;;;;;;11.44;74.71;101763.19;6009728;23;20013;-85
2021/06/07 00:44:41;;;;;;;5.55;2.03;;;;;;;11.30;75.61;101767.28;6010468;23;20010;-85
2021/06/07 00:47:07;;;;;;;3.42;1.98;;;;;;;11.10;76.16;101763.91;6036211;23;20007;-85
2021/06/07 00:49:33;;;;;;;6.10;2.00;;;;;;;10.99;76.50;101766.84;6062815;23;20603;-84
2021/06/07 00:51:58;;;;;;;4.95;2.50;;;;;;;11.05;76.50;101768.06;6013602;23;20073;-85
2021/06/07 00:54:24;;;;;;;3.50;1.85;;;;;;;11.21;76.63;101770.91;6013374;23;20094;-84
2021/06/07 00:56:49;;;;;;;5.57;2.38;;;;;;;11.28;76.12;101777.38;6034076;23;20441;-85
2021/06/07 00:59:15;;;;;;;4.60;2.08;;;;;;;11.28;75.90;101763.91;6035405;23;20004;-85
2021/06/07 01:01:40;;;;;;;7.75;1.95;;;;;;;11.37;75.99;101762.09;6010375;23;20003;-83
2021/06/07 01:04:06;;;;;;;8.13;2.38;;;;;;;11.21;76.08;101731.34;6037741;23;20018;-84
2021/06/07 01:06:32;;;;;;;6.25;1.73;;;;;;;11.29;76.13;101744.03;6014572;23;20011;-84
2021/06/07 01:08:58;;;;;;;3.42;1.98;;;;;;;11.23;76.49;101753.59;6013417;23;20053;-85
2021/06/07 01:11:24;;;;;;;4.57;2.35;;;;;;;11.18;76.67;101757.75;6012160;23;19999;-85
2021/06/07 01:13:51;;;;;;;9.00;2.35;;;;;;;11.06;77.19;101737.44;6035503;23;20057;-84
2021/06/07 01:16:17;;;;;;;6.97;1.92;;;;;;;11.07;77.31;101748.06;6015022;23;20007;-84
2021/06/07 01:18:42;;;;;;;4.75;2.00;;;;;;;11.07;77.60;101745.38;6016525;23;20006;-83
2021/06/07 01:21:10;;;;;;;5.63;2.20;;;;;;;11.15;77.53;101750.00;6015694;23;20011;-85
2021/06/07 01:23:37;;;;;;;4.70;1.95;;;;;;;11.18;77.30;101753.22;6041750;23;20013;-84
2021/06/07 01:26:05;;;;;;;3.50;2.03;;;;;;;11.20;77.28;101739.59;6065893;23;20082;-85
2021/06/07 01:28:31;;;;;;;6.60;2.00;;;;;;;11.29;77.17;101760.19;6039425;23;20051;-85
2021/06/07 01:30:57;;;;;;;6.32;2.20;;;;;;;11.10;77.54;101717.31;6019701;23;20018;-85
2021/06/07 01:33:25;;;;;;;4.32;1.80;;;;;;;11.31;77.63;101747.44;6043590;23;20003;-85
2021/06/07 01:35:53;;;;;;;7.68;2.33;;;;;;;11.30;77.28;101751.13;6018997;23;20475;-85
2021/06/07 01:38:18;;;;;;;3.72;1.95;;;;;;;11.14;77.53;101742.91;6044913;23;20017;-84
2021/06/07 01:40:47;;;;;;;12.90;2.50;;;;;;;11.11;77.54;101748.59;6043827;23;20031;-84
2021/06/07 01:43:12;;;;;;;5.07;2.25;;;;;;;11.03;77.55;101733.22;6041348;23;20011;-84
2021/06/07 01:45:40;;;;;;;4.68;2.40;;;;;;;11.06;77.63;101738.31;6018227;23;20603;-84
2021/06/07 01:48:08;;;;;;;5.70;2.15;;;;;;;10.91;77.85;101734.47;6018901;23;20886;-84
2021/06/07 01:50:34;;;;;;;5.15;2.10;;;;;;;10.86;78.11;101723.31;6019679;23;19999;-85
2021/06/07 01:53:00;;;;;;;4.75;2.00;;;;;;;10.81;78.80;101714.88;6019455;23;20003;-85
2021/06/07 01:55:39;;;;;;;4.78;1.95;;;;;;;10.86;77.69;101716.09;6043843;23;20085;-84
2021/06/07 01:58:07;;;;;;;2.83;1.73;;;;;;;10.96;78.04;101724.09;6016131;23;20010;-84
2021/06/07 02:00:49;;;;;;;3.58;1.95;;;;;;;10.94;78.36;101710.78;6015376;23;20053;-84
2021/06/07 02:03:17;;;;;;;11.27;2.35;;;;;;;10.88;78.25;101707.88;6069324;23;20429;-85
2021/06/07 02:05:45;;;;;;;8.15;2.65;;;;;;;10.80;78.51;101705.97;6023136;23;20003;-84
2021/06/07 02:08:13;;;;;;;6.40;1.92;;;;;;;10.70;79.11;101694.44;6019123;23;20432;-84
2021/06/07 02:10:43;;;;;;;6.68;1.85;;;;;;;10.52;79.28;101686.34;6018849;23;20010;-84
2021/06/07 02:13:10;;;;;;;3.53;1.88;;;;;;;10.61;79.52;101698.03;6016130;23;20022;-84
2021/06/07 02:15:36;;;;;;;5.55;1.83;;;;;;;10.57;79.46;101671.44;6016076;23;20113;-85
2021/06/07 02:18:07;;;;;;;5.07;2.03;;;;;;;10.49;79.12;101660.59;6018147;23;20010;-84
2021/06/07 02:20:33;;;;;;;5.78;1.88;;;;;;;10.69;79.08;101687.34;6017673;23;20086;-84
2021/06/07 02:22:58;;;;;;;4.88;2.05;;;;;;;10.68;78.53;101688.34;6018311;23;20066;-84
2021/06/07 02:25:23;;;;;;;7.97;2.47;;;;;;;10.69;78.65;101677.44;6018084;23;20039;-84
2021/06/07 02:27:50;;;;;;;4.15;1.80;;;;;;;10.66;78.92;101676.91;6017604;23;20806;-85
2021/06/07 02:30:16;;;;;;;5.47;1.90;;;;;;;10.69;79.02;101680.13;6019891;23;20009;-84
2021/06/07 02:32:42;;;;;;;3.08;1.60;;;;;;;10.63;79.36;101671.81;6041697;23;20011;-84
2021/06/07 02:35:10;;;;;;;6.88;1.98;;;;;;;10.65;79.44;101676.06;6019167;23;20003;-85
2021/06/07 02:37:35;;;;;;;4.15;1.85;;;;;;;10.60;79.47;101666.75;6019687;23;20014;-84
2021/06/07 02:40:04;;;;;;;4.80;2.15;;;;;;;10.73;79.23;101688.72;6046296;23;20002;-85
2021/06/07 02:42:30;;;;;;;4.53;1.88;;;;;;;10.71;79.22;101683.50;6043177;23;20011;-84
2021/06/07 02:44:55;;;;;;;4.45;2.05;;;;;;;10.76;78.67;101686.56;6020109;23;20082;-84
2021/06/07 02:47:20;;;;;;;3.92;1.98;;;;;;;10.66;79.09;101683.09;6018268;23;20011;-83
2021/06/07 02:49:46;;;;;;;6.60;2.25;;;;;;;10.52;78.99;101662.97;6040958;23;20469;-85
2021/06/07 02:52:11;;;;;;;4.97;1.92;;;;;;;10.56;78.73;101671.63;6017703;23;20002;-84
2021/06/07 02:54:37;;;;;;;4.75;1.98;;;;;;;10.54;78.65;101677.13;6017398;23;19999;-84
2021/06/07 02:57:04;;;;;;;8.98;2.20;;;;;;;10.50;79.24;101664.97;6042658;23;20059;-84
2021/06/07 02:59:29;;;;;;;4.97;2.15;;;;;;;10.49;79.20;101676.75;6015998;23;20503;-84
2021/06/07 03:01:54;;;;;;;4.70;2.58;;;;;;;10.46;79.39;101677.06;6017171;23;20018;-84
2021/06/07 03:04:20;;;;;;;5.63;2.28;;;;;;;10.39;79.81;101675.97;6041896;23;20007;-84
2021/06/07 03:06:45;;;;;;;3.35;2.00;;;;;;;10.34;79.87;101662.13;6040831;23;20009;-84
2021/06/07 03:09:11;;;;;;;3.42;2.20;;;;;;;10.35;80.23;101669.22;6017833;23;20006;-83
2021/06/07 03:11:36;;;;;;;6.13;2.10;;;;;;;10.31;79.95;101667.81;6018105;23;20011;-84
2021/06/07 03:14:02;;;;;;;3.80;1.83;;;;;;;10.24;80.79;101656.81;6019804;23;20027;-83
2021/06/07 03:16:27;;;;;;;5.55;2.00;;;;;;;10.27;80.54;101664.59;6019759;23;20013;-84
2021/06/07 03:18:53;;;;;;;6.53;1.90;;;;;;;10.30;80.90;101672.34;6020775;23;20006;-84
2021/06/07 03:21:18;;;;;;;4.85;2.00;;;;;;;10.36;80.50;101681.66;6019508;23;20003;-85
2021/06/07 03:23:44;;;;;;;4.88;2.10;;;;;;;10.28;79.99;101665.44;6018765;23;20006;-84
2021/06/07 03:26:10;;;;;;;3.17;1.52;;;;;;;10.36;79.75;101675.44;6018452;23;20491;-84
2021/06/07 03:28:36;;;;;;;4.78;1.83;;;;;;;10.33;79.70;101666.66;6040428;23;20010;-84
2021/06/07 03:31:02;;;;;;;7.32;2.00;;;;;;;10.41;78.87;101668.59;6019338;23;20314;-85
2021/06/07 03:33:28;;;;;;;5.53;2.00;;;;;;;10.45;77.80;101670.00;6020287;23;20046;-84
2021/06/07 03:35:55;;;;;;;5.28;2.30;;;;;;;10.50;77.61;101674.88;6017740;23;20007;-84
2021/06/07 03:38:22;;;;;;;4.57;2.17;;;;;;;10.61;77.10;101679.19;6036395;23;20009;-83
2021/06/07 03:40:52;;;;;;;4.72;2.13;;;;;;;10.39;76.91;101638.31;6037407;23;20007;-85
2021/06/07 03:43:18;;;;;;;4.68;2.28;;;;;;;10.50;76.92;101658.75;6012760;23;20030;-84
2021/06/07 03:45:43;;;;;;;6.93;2.03;;;;;;;10.52;76.80;101668.38;6013293;23;20007;-84
2021/06/07 03:48:09;;;;;;;3.47;2.00;;;;;;;10.61;76.78;101668.44;6013680;23;20501;-84
2021/06/07 03:50:36;;;;;;;5.95;2.10;;;;;;;10.55;76.26;101649.22;6037722;23;20038;-85
2021/06/07 03:53:02;;;;;;;5.70;1.98;;;;;;;10.59;76.47;101657.00;6036742;23;20010;-84
2021/06/07 03:55:28;;;;;;;8.73;2.25;;;;;;;10.56;76.62;101667.06;6013713;23;20003;-85
2021/06/07 03:57:55;;;;;;;6.68;2.03;;;;;;;10.49;76.39;101668.66;6036427;23;20016;-85
2021/06/07 04:00:24;;;;;;;5.15;1.90;;;;;;;10.45;76.70;101655.69;6012873;23;20054;-83
2021/06/07 04:02:50;;;;;;;7.32;2.20;;;;;;;10.46;76.57;101660.91;6013601;23;20086;-84
2021/06/07 04:05:16;;;;;;;6.95;2.40;;;;;;;10.42;76.70;101650.63;6013619;23;20043;-84
2021/06/07 04:07:42;;;;;;;7.53;1.77;;;;;;;10.44;76.65;101638.72;6036733;23;20102;-84
2021/06/07 04:10:10;;;;;;;4.93;1.85;;;;;;;10.48;76.68;101653.56;6014041;23;20011;-84
2021/06/07 04:12:36;;;;;;;4.60;2.08;;;;;;;10.48;76.68;101639.25;6013223;23;20054;-85
2021/06/07 04:15:04;;;;;;;7.35;2.33;;;;;;;10.52;76.38;101648.69;6013101;23;20041;-83
2021/06/07 04:17:29;;;;;;;4.63;2.00;;;;;;;10.40;76.74;101645.41;6012848;23;20007;-85
2021/06/07 04:19:54;;;;;;;4.53;1.80;;;;;;;10.31;76.91;101638.25;6013337;23;20013;-84
2021/06/07 04:22:20;;;;;;;9.75;2.42;;;;;;;10.37;76.83;101643.00;6036890;23;20396;-85
2021/06/07 04:24:46;;;;;;;3.25;2.05;;;;;;;10.36;76.86;101637.78;6013192;23;20002;-84
2021/06/07 04:27:13;;;;;;;3.22;2.38;;;;;;;10.32;76.83;101637.25;6012099;23;20034;-84
2021/06/07 04:29:42;;;;;;;9.45;2.33;;;;;;;10.31;76.89;101638.25;6011921;23;20018;-84
2021/06/07 04:32:08;;;;;;;5.82;2.20;;;;;;;10.26;77.08;101632.44;6013044;23;20094;-85
2021/06/07 04:34:34;;;;;;;7.35;2.40;;;;;;;10.24;77.14;101635.31;6012655;23;19998;-85
2021/06/07 04:36:59;;;;;;;6.05;1.92;;;;;;;10.25;77.22;101641.50;6011372;23;19999;-85
2021/06/07 04:39:25;;;;;;;4.50;2.05;;;;;;;10.26;77.19;101644.03;6034810;23;20003;-84
2021/06/07 04:41:51;;;;;;;6.85;2.17;;;;;;;10.28;77.42;101642.06;6012583;23;20090;-85
2021/06/07 04:44:16;;;;;;;7.65;2.42;;;;;;;10.25;77.50;101638.81;6011797;23;20019;-85
2021/06/07 04:46:41;;;;;;;4.95;1.98;;;;;;;10.26;77.56;101643.19;6013023;23;20082;-84
2021/06/07 04:49:07;;;;;;;5.28;2.17;;;;;;;10.20;77.59;101630.38;6037020;23;20010;-84
2021/06/07 04:51:32;;;;;;;6.97;2.20;;;;;;;10.20;78.03;101644.66;6012238;23;20009;-84
2021/06/07 04:53:58;;;;;;;5.68;2.20;;;;;;;9.99;77.85;101610.00;6014107;23;20029;-84
2021/06/07 04:56:23;;;;;;;4.65;2.15;;;;;;;10.15;77.80;101648.78;6036210;23;20337;-85
2021/06/07 04:58:49;;;;;;;4.10;2.33;;;;;;;9.99;78.32;101631.47;6010948;23;20002;-84
2021/06/07 05:01:16;;;;;;;4.38;2.15;;;;;;;10.00;78.39;101646.63;6035365;23;20003;-84
2021/06/07 05:03:42;;;;;;;6.18;2.17;;;;;;;9.94;78.71;101644.53;6036908;23;20006;-85
2021/06/07 05:06:07;;;;;;;7.90;2.58;;;;;;;9.91;78.29;101636.75;6012759;23;20017;-84
2021/06/07 05:08:33;;;;;;;6.60;2.42;;;;;;;9.97;78.45;101628.09;6012325;23;20093;-84
2021/06/07 05:10:59;;;;;;;3.75;2.00;;;;;;;10.00;78.17;101649.31;6037549;23;20013;-83
2021/06/07 05:13:25;;;;;;;8.98;2.60;;;;;;;9.98;77.76;101631.66;6011816;23;20007;-85
2021/06/07 05:15:52;;;;;;;5.43;2.63;;;;;;;10.08;77.63;101627.91;6013613;23;20010;-85
2021/06/07 05:18:17;;;;;;;7.22;2.20;;;;;;;10.12;77.58;101625.75;6036385;23;20014;-84
2021/06/07 05:20:43;;;;;;;8.25;2.35;;;;;;;10.22;76.94;101639.13;6011604;23;20033;-85
2021/06/07 05:23:11;;;;;;;3.95;1.98;;;;;;;10.32;76.83;101637.25;6036634;23;20007;-85
2021/06/07 05:25:39;;;;;;;4.43;1.90;;;;;;;10.34;76.71;101636.09;6037246;23;20019;-85
2021/06/07 05:28:06;;;;;;;5.53;2.17;;;;;;;10.41;76.97;101644.41;6012214;23;20081;-84
2021/06/07 05:30:32;;;;;;;5.40;2.22;;;;;;;10.32;77.23;101623.81;6037291;23;20035;-84
2021/06/07 05:32:57;;;;;;;5.40;2.50;;;;;;;10.54;76.74;101647.53;6013281;23;20011;-84
2021/06/07 05:35:25;;;;;;;7.63;2.55;;;;;;;10.62;76.35;101640.56;6012981;23;20381;-85
2021/06/07 05:37:51;;;;;;;5.95;2.90;;;;;;;10.64;76.31;101646.59;6013310;23;20033;-84
2021/06/07 05:40:18;;;;;;;6.15;1.95;;;;;;;10.68;75.54;101642.63;6013156;23;20006;-85
2021/06/07 05:42:44;;;;;;;6.20;2.47;;;;;;;10.79;75.23;101637.84;6012354;23;20042;-85
2021/06/07 05:45:11;;;;;;;9.30;2.05;;;;;;;10.83;74.66;101643.75;6035626;23;20007;-85
2021/06/07 05:47:38;;;;;;;6.90;2.08;;;;;;;10.75;74.67;101636.47;6012753;23;20034;-84
2021/06/07 05:50:05;;;;;;;7.05;2.03;;;;;;;10.88;74.39;101646.00;6011754;23;20011;-83
2021/06/07 05:52:30;;;;;;;5.13;2.50;;;;;;;10.76;74.28;101618.47;6035769;23;20011;-84
2021/06/07 05:54:56;;;;;;;5.55;1.92;;;;;;;10.98;73.84;101644.03;6012870;23;20021;-83
2021/06/07 05:57:21;;;;;;;3.38;1.80;;;;;;;11.10;73.66;101639.25;6013088;23;20006;-84
2021/06/07 05:59:47;;;;;;;8.73;2.80;;;;;;;11.10;73.05;101623.94;6011555;23;20033;-84
2021/06/07 06:02:13;;;;;;;7.20;1.92;;;;;;;11.21;72.66;101637.13;6012569;23;20042;-83
2021/06/07 06:04:40;;;;;;;2.90;1.42;;;;;;;11.29;72.67;101646.28;6012973;23;20015;-85
2021/06/07 06:07:06;;;;;;;5.00;1.70;;;;;;;11.31;72.29;101631.66;6036547;23;20058;-84
2021/06/07 06:09:32;;;;;;;5.25;2.20;;;;;;;11.25;72.75;101632.28;6012715;23;20018;-84
2021/06/07 06:11:58;;;;;;;7.15;1.77;;;;;;;11.30;72.85;101638.06;6015329;23;20011;-84
2021/06/07 06:14:24;;;;;;;5.15;1.88;;;;;;;11.34;72.78;101633.19;6014337;23;20025;-84
2021/06/07 06:16:50;;;;;;;6.18;1.85;;;;;;;11.54;72.25;101631.13;6015109;23;20006;-84
2021/06/07 06:19:15;;;;;;;9.93;2.10;;;;;;;11.74;71.57;101627.16;6013196;23;20062;-84
2021/06/07 06:21:41;;;;;;;7.35;2.22;;;;;;;11.90;71.28;101630.94;6015588;23;20014;-84
2021/06/07 06:24:11;;;;;;;5.63;1.75;;;;;;;11.98;70.82;101631.81;6014384;23;20077;-83
2021/06/07 06:26:37;;;;;;;8.20;2.05;;;;;;;11.81;71.24;101630.03;6015287;23;20030;-84
2021/06/07 06:29:04;;;;;;;7.68;2.17;;;;;;;11.73;71.30;101624.63;6014670;23;20015;-85
2021/06/07 06:31:29;;;;;;;3.80;1.70;;;;;;;11.71;71.44;101630.16;6037751;23;20003;-85
2021/06/07 06:33:55;;;;;;;3.58;1.60;;;;;;;11.59;71.20;101628.75;6014104;23;20338;-83
2021/06/07 06:36:20;;;;;;;7.30;1.98;;;;;;;11.51;71.60;101644.88;6014950;23;20066;-84
2021/06/07 06:38:46;;;;;;;6.70;1.75;;;;;;;11.45;72.03;101639.13;6013424;23;20070;-84
2021/06/07 06:41:12;;;;;;;6.57;2.67;;;;;;;11.36;71.67;101632.03;6014669;23;20353;-83
2021/06/07 06:43:37;;;;;;;5.53;1.60;;;;;;;11.34;71.68;101634.03;6037156;23;20066;-84
2021/06/07 06:46:03;;;;;;;3.95;1.40;;;;;;;11.42;71.86;101639.44;6014495;23;20007;-85
2021/06/07 06:48:29;;;;;;;6.95;1.92;;;;;;;11.62;71.65;101631.16;6014108;23;20006;-85
2021/06/07 06:50:55;;;;;;;7.82;2.42;;;;;;;11.81;71.10;101638.97;6038928;23;20036;-84
2021/06/07 06:53:21;;;;;;;4.85;1.67;;;;;;;12.01;70.58;101634.19;6015596;23;20984;-83
2021/06/07 06:55:48;;;;;;;3.70;1.63;;;;;;;12.10;70.67;101616.19;6015488;23;20077;-85
2021/06/07 06:58:13;;;;;;;4.07;1.60;;;;;;;12.32;69.83;101629.03;6037970;23;20027;-84
2021/06/07 07:00:39;;;;;;;4.22;1.75;;;;;;;12.54;69.87;101643.75;6038089;23;20037;-84
2021/06/07 07:03:18;;;;;;;5.70;2.13;;;;;;;12.64;68.56;101635.47;6010807;23;20130;-83
2021/06/07 07:05:45;;;;;;;6.90;1.70;;;;;;;12.63;68.10;101635.66;6036277;23;20073;-84
2021/06/07 07:08:10;;;;;;;7.00;1.80;;;;;;;12.67;67.75;101631.59;6034910;23;20003;-85
2021/06/07 07:10:38;;;;;;;5.57;1.90;;;;;;;12.77;67.75;101638.50;6035213;23;20014;-84
2021/06/07 07:13:04;;;;;;;3.60;1.65;;;;;;;12.69;67.31;101635.81;6011992;23;20045;-85
2021/06/07 07:15:29;;;;;;;5.57;1.65;;;;;;;12.67;68.19;101634.28;6036363;23;20626;-85
2021/06/07 07:17:55;;;;;;;4.32;1.83;;;;;;;12.61;67.78;101619.63;6011476;23;20022;-83
2021/06/07 07:20:20;;;;;;;6.55;1.80;;;;;;;12.56;67.85;101616.59;6012043;23;20005;-84
2021/06/07 07:22:46;;;;;;;6.15;1.88;;;;;;;12.52;67.84;101617.94;6012398;23;20053;-85
2021/06/07 07:25:12;;;;;;;4.32;1.80;;;;;;;12.53;68.00;101622.31;6034844;23;20014;-84
2021/06/07 07:27:38;;;;;;;5.43;2.85;;;;;;;12.61;67.63;101622.31;6011585;23;20065;-85
2021/06/07 07:30:09;;;;;;;5.53;1.60;;;;;;;12.70;67.30;101615.06;6011784;23;20011;-84
2021/06/07 07:32:36;;;;;;;3.60;1.58;;;;;;;12.81;67.16;101613.88;6011393;23;20010;-84
2021/06/07 07:35:02;;;;;;;7.13;1.90;;;;;;;12.85;66.68;101617.94;6012142;23;20003;-84
2021/06/07 07:37:28;;;;;;;6.45;2.03;;;;;;;12.91;66.77;101617.25;6036799;23;20434;-85
2021/06/07 07:39:53;;;;;;;7.43;1.90;;;;;;;13.05;66.55;101624.66;6010733;23;20089;-84
2021/06/07 07:42:18;;;;;;;5.82;2.00;;;;;;;13.10;66.35;101616.91;6012006;23;20093;-84
2021/06/07 07:44:44;;;;;;;3.95;1.58;;;;;;;13.15;66.64;101610.97;6036622;23;20451;-85
2021/06/07 07:47:12;;;;;;;5.03;2.00;;;;;;;13.06;66.66;101615.53;6011081;23;20050;-84
2021/06/07 07:49:38;;;;;;;6.15;2.58;;;;;;;13.01;66.37;101620.63;6013157;23;20018;-85
2021/06/07 07:52:05;;;;;;;5.22;2.10;;;;;;;12.73;66.04;101599.41;6013723;23;20031;-84
2021/06/07 07:54:31;;;;;;;4.43;2.08;;;;;;;12.75;66.60;101632.47;6012425;23;20078;-79
2021/06/07 07:56:57;;;;;;;6.35;1.73;;;;;;;12.67;66.95;101632.44;6037636;23;20011;-79
2021/06/07 07:59:23;;;;;;;6.00;2.10;;;;;;;12.66;66.77;101630.75;6034339;23;20040;-78
2021/06/07 08:01:48;;;;;;;6.75;2.35;;;;;;;12.59;67.04;101624.34;6035709;23;20014;-79
2021/06/07 08:04:14;;;;;;;3.83;1.90;;;;;;;12.64;67.47;101629.22;6037962;23;20007;-85
2021/06/07 08:06:40;;;;;;;4.82;2.00;;;;;;;12.68;67.74;101631.44;6016640;23;20497;-84
2021/06/07 08:09:06;;;;;;;6.18;2.72;;;;;;;12.71;67.43;101620.31;6016208;23;20352;-85
2021/06/07 08:11:31;;;;;;;6.45;2.25;;;;;;;12.79;66.80;101622.16;6017163;23;20035;-83
2021/06/07 08:13:57;;;;;;;8.57;2.53;;;;;;;12.96;66.96;101633.78;6017935;23;20030;-87
2021/06/07 08:16:23;;;;;;;7.78;2.55;;;;;;;13.17;66.12;101625.16;6017889;23;20003;-84
2021/06/07 08:18:48;;;;;;;4.05;1.75;;;;;;;13.44;65.71;101614.97;6015760;23;20002;-85
2021/06/07 08:21:14;;;;;;;4.80;2.00;;;;;;;13.80;65.12;101628.88;6041873;23;20382;-84
2021/06/07 08:23:39;;;;;;;3.92;2.13;;;;;;;14.01;63.08;101630.97;6016284;23;20015;-85
2021/06/07 08:26:05;;;;;;;4.28;1.70;;;;;;;14.00;62.79;101618.47;6041786;23;20211;-84
2021/06/07 08:28:31;;;;;;;4.95;2.00;;;;;;;13.98;62.92;101624.06;6019363;23;20042;-84
2021/06/07 08:30:56;;;;;;;5.93;2.03;;;;;;;14.03;62.98;101608.13;6019263;23;20002;-84
2021/06/07 08:33:22;;;;;;;5.30;2.10;;;;;;;14.11;63.52;101614.53;6042373;23;20019;-85
2021/06/07 08:35:47;;;;;;;4.63;2.25;;;;;;;14.17;62.88;101617.34;6018764;23;20081;-85
2021/06/07 08:38:13;;;;;;;8.23;2.50;;;;;;;14.20;62.85;101611.56;6042733;23;20007;-85
2021/06/07 08:40:38;;;;;;;4.35;1.90;;;;;;;14.09;62.81;101612.00;6021560;23;20069;-85
2021/06/07 08:43:04;;;;;;;4.70;2.10;;;;;;;13.89;63.16;101611.56;6021353;23;20033;-83
2021/06/07 08:45:30;;;;;;;6.28;2.00;;;;;;;13.72;63.64;101618.09;6019187;23;20455;-84
2021/06/07 08:47:55;;;;;;;5.55;1.90;;;;;;;13.59;63.79;101616.78;6040701;23;20086;-84
2021/06/07 08:50:24;;;;;;;5.68;2.40;;;;;;;13.50;64.32;101617.84;6018605;23;20495;-84
2021/06/07 08:52:49;;;;;;;5.63;2.00;;;;;;;13.43;64.53;101597.09;6041625;23;20006;-84
2021/06/07 08:55:18;;;;;;;8.48;2.42;;;;;;;13.48;65.26;101610.94;6017716;23;20055;-84
2021/06/07 08:57:46;;;;;;;6.35;2.30;;;;;;;13.51;65.26;101599.75;6018214;23;20394;-84
2021/06/07 09:00:15;;;;;;;6.70;2.75;;;;;;;13.56;65.24;101610.91;6043748;23;20003;-84
2021/06/07 09:02:41;;;;;;;4.35;2.10;;;;;;;13.58;65.03;101625.91;6018129;23;20007;-84
2021/06/07 09:05:08;;;;;;;4.25;2.00;;;;;;;13.71;64.24;101619.13;6043023;23;20134;-85
2021/06/07 09:07:49;;;;;;;4.30;2.20;;;;;;;13.83;64.25;101628.50;6043638;23;20340;-84
2021/06/07 09:10:15;;;;;;;6.70;2.22;;;;;;;13.84;64.28;101612.13;6044586;23;20447;-84
2021/06/07 09:12:42;;;;;;;7.38;3.17;;;;;;;14.12;63.99;101621.59;6018994;23;20011;-85
2021/06/07 09:15:13;;;;;;;5.50;2.03;;;;;;;14.42;63.02;101620.75;6043129;23;20010;-84
2021/06/07 09:17:45;;;;;;;9.50;2.38;;;;;;;14.67;61.83;101628.69;6019519;23;20006;-85
2021/06/07 09:20:19;;;;;;;5.38;2.40;;;;;;;14.72;61.05;101613.59;6020810;23;20011;-84
2021/06/07 09:22:53;;;;;;;6.72;2.33;;;;;;;14.76;61.65;101618.63;6018444;23;20015;-85
2021/06/07 09:25:25;;;;;;;7.20;2.30;;;;;;;14.99;61.42;101624.88;6046349;23;20014;-84
2021/06/07 09:28:06;;;;;;;5.18;1.95;;;;;;;15.42;60.67;101629.69;6013121;23;20015;-83
2021/06/07 09:30:40;;;;;;;5.25;2.20;;;;;;;15.43;59.69;101626.78;6014827;23;20006;-83
2021/06/07 09:33:20;;;;;;;4.53;2.25;;;;;;;15.47;59.51;101621.81;6016063;23;20027;-85
2021/06/07 09:35:48;;;;;;;4.32;2.20;;;;;;;15.46;59.35;101612.03;6016741;23;20062;-85
2021/06/07 09:38:13;;;;;;;5.72;2.40;;;;;;;15.49;58.94;101598.09;6015917;23;20010;-85
2021/06/07 09:40:38;;;;;;;5.47;2.30;;;;;;;15.63;59.00;101604.53;6017186;23;20002;-84
2021/06/07 09:43:05;;;;;;;6.25;3.30;;;;;;;15.65;59.39;101595.19;6045258;23;20010;-85
2021/06/07 09:46:07;;;;;;;7.95;4.25;;;;;;;15.80;58.31;101600.63;6022141;23;20066;-85
2021/06/07 09:48:33;;;;;;;5.90;3.13;;;;;;;15.82;57.92;101604.81;6023982;23;20010;-84
2021/06/07 09:51:00;;;;;;;5.18;2.03;;;;;;;15.82;58.41;101596.69;6021512;23;20011;-84
2021/06/07 09:53:55;;;;;;;6.38;2.50;;;;;;;15.76;58.51;101600.13;6045033;23;20010;-85
2021/06/07 09:56:22;;;;;;;11.85;2.75;;;;;;;15.55;58.68;101603.59;6018223;23;20754;-84
2021/06/07 09:58:48;;;;;;;4.43;1.90;;;;;;;15.37;58.27;101590.44;6015570;23;20030;-84
2021/06/07 10:01:19;;;;;;;5.82;2.20;;;;;;;15.35;58.24;101592.50;6015238;23;20062;-84
2021/06/07 10:03:53;;;;;;;4.88;1.90;;;;;;;15.52;58.08;101584.16;6013707;23;20007;-84
2021/06/07 10:06:26;;;;;;;4.03;1.98;;;;;;;15.79;58.34;101602.47;6015704;23;20011;-85
2021/06/07 10:09:00;;;;;;;7.60;2.40;;;;;;;16.09;57.70;101604.28;6041429;23;20029;-83
2021/06/07 10:11:35;;;;;;;5.55;1.95;;;;;;;16.21;56.84;101587.31;6040725;23;20472;-84
2021/06/07 10:14:10;;;;;;;6.45;2.03;;;;;;;16.31;55.73;101610.59;6016776;23;20010;-84
2021/06/07 10:16:38;;;;;;;7.43;2.25;;;;;;;16.25;55.09;101596.75;6038422;23;20057;-81
2021/06/07 10:19:16;;;;;;;7.43;2.28;;;;;;;16.02;55.63;101606.94;6037420;23;20007;-83
2021/06/07 10:21:41;;;;;;;5.20;2.28;;;;;;;15.84;56.05;101582.94;6016680;23;20344;-82
2021/06/07 10:24:07;;;;;;;8.85;2.25;;;;;;;15.97;56.80;101584.97;6039569;23;20014;-84
2021/06/07 10:26:32;;;;;;;6.35;2.67;;;;;;;16.04;56.31;101588.59;6015845;23;20342;-85
2021/06/07 10:28:58;;;;;;;5.85;2.00;;;;;;;16.12;56.25;101584.94;6014428;23;20018;-83
2021/06/07 10:31:25;;;;;;;6.47;2.17;;;;;;;16.33;57.05;101575.97;6038083;23;20011;-82
2021/06/07 10:34:09;;;;;;;3.70;2.00;;;;;;;16.52;55.61;101588.88;6014803;23;20302;-83
2021/06/07 10:36:39;;;;;;;6.53;2.17;;;;;;;16.42;55.78;101580.22;6014350;23;20011;-84
2021/06/07 10:39:18;;;;;;;3.88;1.80;;;;;;;16.59;54.84;101584.34;6062570;23;20085;-85
2021/06/07 10:42:09;;;;;;;4.55;2.15;;;;;;;16.61;52.78;101578.69;6039020;23;20037;-85
2021/06/07 10:44:49;;;;;;;2.58;1.45;;;;;;;16.57;52.88;101580.97;6064239;23;20014;-83
2021/06/07 10:47:24;;;;;;;4.05;2.05;;;;;;;16.46;53.38;101587.78;6015574;23;20467;-84
2021/06/07 10:50:06;;;;;;;5.32;2.10;;;;;;;16.39;53.66;101583.31;6017581;23;20014;-85
2021/06/07 10:52:50;;;;;;;4.57;1.90;;;;;;;16.31;54.20;101578.84;6015930;23;20444;-86
2021/06/07 10:55:18;;;;;;;4.18;2.00;;;;;;;16.32;55.06;101577.81;6015588;23;20089;-82
2021/06/07 10:57:46;;;;;;;4.05;2.03;;;;;;;16.34;55.57;101588.47;6038501;23;20117;-84
2021/06/07 11:00:38;;;;;;;6.18;2.55;;;;;;;16.24;55.70;101592.34;6039119;23;20527;-84
2021/06/07 11:03:21;;;;;;;4.68;1.98;;;;;;;16.19;55.81;101566.81;6040486;23;20019;-83
2021/06/07 11:05:55;;;;;;;4.93;2.00;;;;;;;16.24;55.43;101580.66;6039590;23;20002;-84
2021/06/07 11:08:29;;;;;;;5.95;2.28;;;;;;;16.32;56.48;101582.41;6014691;23;20014;-81
2021/06/07 11:11:06;;;;;;;4.03;2.00;;;;;;;16.46;56.38;101565.22;6037722;23;20003;-82
2021/06/07 11:13:35;;;;;;;2.55;1.80;;;;;;;16.65;55.88;101572.69;6014908;23;20002;-85
2021/06/07 11:16:02;;;;;;;6.80;2.13;;;;;;;16.80;54.86;101575.34;6014936;23;20027;-82
2021/06/07 11:18:28;;;;;;;3.35;1.90;;;;;;;16.88;52.69;101574.34;6013441;23;20082;-81
2021/06/07 11:20:57;;;;;;;4.18;1.92;;;;;;;16.82;52.45;101561.56;6015509;23;20015;-83
2021/06/07 11:23:39;;;;;;;3.72;2.00;;;;;;;17.17;52.07;101558.88;6016142;23;20013;-84
2021/06/07 11:26:07;;;;;;;4.15;2.17;;;;;;;17.38;50.96;101561.50;6038961;23;20118;-84